Grafton, Virginia
Current Conditions -  °F | °C
As of 3:54 PM on Tuesday 21 Oct 2014 (Local Time) from KPHF Reporting Station
Few Clouds Few Clouds  
Wind Chill: 75°   Ceiling: Unl
Heat Index: 75°   Visibility: 9mi
Dew Point: 49°   Wind: 6mph
Humidity: 40%   Direction: 270°W
Pressure: 29.8"   Gusts: NA
Location:  37.1781°N, 76.4669°W
Report Text: KPHF 211954Z 27005KT 9SM FEW055 24/09 A2980 RMK AO2 SLP092 T02390094
Loading
Personal Weather Stations






























Interactive Weather Map New forecast layout! Learn more

10-Day Weather Forecast

Advertisements
Track Severe Weather on mobile